createdAt,value
2019-01-04T00:00:56.889Z,22.20
2019-01-04T00:03:26.266Z,26.43
2019-01-04T00:05:55.767Z,36.07
2019-01-04T00:08:25.155Z,31.80
2019-01-04T00:10:54.495Z,34.30
2019-01-04T00:13:23.900Z,26.87
2019-01-04T00:15:53.312Z,29.23
2019-01-04T00:18:22.684Z,29.73
2019-01-04T00:20:52.112Z,32.00
2019-01-04T00:23:21.721Z,34.03
2019-01-04T00:25:51.151Z,31.10
2019-01-04T00:28:20.707Z,35.03
2019-01-04T00:30:50.051Z,31.30
2019-01-04T00:33:19.512Z,32.83
2019-01-04T00:35:48.892Z,34.07
2019-01-04T00:38:18.580Z,25.30
2019-01-04T00:40:47.936Z,32.37
2019-01-04T00:43:17.335Z,32.10
2019-01-04T00:45:46.767Z,25.67
2019-01-04T00:48:16.067Z,35.60
2019-01-04T00:50:45.466Z,29.83
2019-01-04T00:53:15.137Z,29.07
2019-01-04T00:56:11.465Z,25.67
2019-01-04T00:59:26.351Z,27.57
2019-01-04T01:02:34.192Z,30.93
2019-01-04T01:05:36.881Z,29.93
2019-01-04T01:08:42.824Z,35.57
2019-01-04T01:11:38.734Z,27.73
2019-01-04T01:14:38.255Z,32.80
2019-01-04T01:17:50.315Z,32.23
2019-01-04T01:20:56.124Z,33.13
2019-01-04T01:24:08.533Z,27.93
2019-01-04T01:27:24.786Z,34.87
2019-01-04T01:30:30.445Z,27.83
2019-01-04T01:33:16.658Z,31.53
2019-01-04T01:36:15.403Z,24.47
2019-01-04T01:39:34.502Z,26.07
2019-01-04T01:42:46.348Z,29.80
2019-01-04T01:45:46.507Z,22.70
2019-01-04T01:48:31.756Z,23.90
2019-01-04T01:51:43.805Z,25.33
2019-01-04T01:54:13.173Z,28.90
2019-01-04T01:56:42.610Z,23.63
2019-01-04T01:59:11.956Z,25.80
2019-01-04T02:01:41.332Z,27.50
2019-01-04T02:04:10.765Z,24.93
2019-01-04T02:06:40.096Z,28.43
2019-01-04T02:09:11.239Z,24.40
2019-01-04T02:11:40.647Z,20.27
2019-01-04T02:14:10.078Z,28.57
2019-01-04T02:16:39.460Z,33.83
2019-01-04T02:19:08.895Z,29.87
2019-01-04T02:21:38.447Z,31.80
2019-01-04T02:24:07.866Z,35.50
2019-01-04T02:26:37.266Z,30.93
2019-01-04T02:29:06.591Z,39.43
2019-01-04T02:31:35.918Z,45.40
2019-01-04T02:34:05.336Z,35.37
2019-01-04T02:36:34.874Z,34.87
2019-01-04T02:39:07.557Z,40.60
2019-01-04T02:41:36.892Z,38.77
2019-01-04T02:44:06.305Z,41.23
2019-01-04T02:46:35.714Z,37.23
2019-01-04T02:49:05.092Z,44.83
2019-01-04T02:51:34.477Z,42.37
2019-01-04T02:54:03.819Z,41.47
2019-01-04T02:56:33.234Z,42.03
2019-01-04T02:59:02.611Z,50.23
2019-01-04T03:01:32.009Z,45.83
2019-01-04T03:04:03.425Z,51.67
2019-01-04T03:06:32.882Z,51.20
2019-01-04T03:09:02.259Z,56.83
2019-01-04T03:11:31.586Z,51.30
2019-01-04T03:14:00.898Z,49.33
2019-01-04T03:16:30.235Z,46.57
2019-01-04T03:18:59.572Z,54.20
2019-01-04T03:21:28.969Z,59.03
2019-01-04T03:23:58.351Z,59.97
2019-01-04T03:26:27.823Z,58.73
2019-01-04T03:28:57.120Z,58.17
2019-01-04T03:31:26.479Z,68.87
2019-01-04T03:33:55.960Z,67.37
2019-01-04T03:36:25.550Z,65.37
2019-01-04T03:38:54.936Z,62.93
2019-01-04T03:41:24.281Z,71.07
2019-01-04T03:43:53.863Z,67.27
2019-01-04T03:46:23.187Z,64.13
2019-01-04T03:48:52.766Z,71.40
2019-01-04T03:51:22.560Z,74.60
2019-01-04T03:53:51.898Z,71.37
2019-01-04T03:56:21.298Z,68.23
2019-01-04T03:58:50.774Z,67.87
2019-01-04T04:01:20.254Z,75.63
2019-01-04T04:03:49.860Z,73.03
2019-01-04T04:06:19.232Z,72.70
2019-01-04T04:08:48.697Z,80.70
2019-01-04T04:11:18.153Z,82.10
2019-01-04T04:13:47.725Z,68.60
2019-01-04T04:16:17.175Z,73.10
2019-01-04T04:18:46.619Z,75.93
2019-01-04T04:21:16.045Z,73.80
2019-01-04T04:23:45.455Z,79.30
2019-01-04T04:26:14.838Z,70.23
2019-01-04T04:28:44.275Z,75.87
2019-01-04T04:31:13.719Z,74.63
2019-01-04T04:33:43.096Z,83.00
2019-01-04T04:36:12.721Z,65.93
2019-01-04T04:38:42.096Z,76.67
2019-01-04T04:41:11.498Z,76.97
2019-01-04T04:43:40.951Z,73.93
2019-01-04T04:46:10.690Z,74.70
2019-01-04T04:48:40.175Z,63.27
2019-01-04T04:51:09.542Z,69.70
2019-01-04T04:53:38.959Z,73.23
2019-01-04T04:56:08.402Z,68.80
2019-01-04T04:58:37.723Z,64.37
2019-01-04T05:01:07.087Z,63.93
2019-01-04T05:03:36.537Z,64.97
2019-01-04T05:06:05.909Z,60.77
2019-01-04T05:08:35.227Z,56.40
2019-01-04T05:11:04.604Z,55.00
2019-01-04T05:13:34.139Z,51.80
2019-01-04T05:16:03.718Z,49.67
2019-01-04T05:18:33.154Z,47.70
2019-01-04T05:21:02.484Z,47.53
2019-01-04T05:23:31.980Z,50.80
2019-01-04T05:26:01.346Z,42.43
2019-01-04T05:28:30.716Z,48.00
2019-01-04T05:31:00.060Z,41.93
2019-01-04T05:33:29.423Z,37.67
2019-01-04T05:35:58.824Z,39.67
2019-01-04T05:38:28.121Z,38.33
2019-01-04T05:40:57.666Z,44.77
2019-01-04T05:43:27.319Z,44.87
2019-01-04T05:45:56.807Z,36.87
2019-01-04T05:48:26.346Z,35.33
2019-01-04T05:50:55.787Z,36.33
2019-01-04T05:53:25.218Z,33.20
2019-01-04T05:55:54.609Z,25.13
2019-01-04T05:58:24.051Z,24.70
2019-01-04T06:00:53.596Z,23.03
2019-01-04T06:03:23.025Z,26.97
2019-01-04T06:05:52.403Z,21.37
2019-01-04T06:08:21.761Z,24.27
2019-01-04T06:10:51.177Z,26.93
2019-01-04T06:13:20.753Z,21.67
2019-01-04T06:15:50.114Z,24.37
2019-01-04T06:18:19.615Z,23.13
2019-01-04T06:20:51.932Z,22.23
2019-01-04T06:23:21.397Z,24.40
2019-01-04T06:25:51.006Z,23.00
2019-01-04T06:28:20.605Z,27.17
2019-01-04T06:30:50.012Z,24.33
2019-01-04T06:33:19.378Z,25.77
2019-01-04T06:35:48.804Z,26.63
2019-01-04T06:38:18.201Z,23.93
2019-01-04T06:40:47.586Z,24.47
2019-01-04T06:43:16.980Z,29.20
2019-01-04T06:45:46.394Z,27.17
2019-01-04T06:48:15.796Z,24.90
2019-01-04T06:50:45.266Z,24.27
2019-01-04T06:53:14.656Z,30.47
2019-01-04T06:55:56.252Z,23.80
2019-01-04T06:58:25.803Z,26.63
2019-01-04T07:00:55.185Z,23.33
2019-01-04T07:03:24.615Z,23.60
2019-01-04T07:05:54.051Z,25.53
2019-01-04T07:08:23.670Z,24.40
2019-01-04T07:10:53.123Z,21.83
2019-01-04T07:13:22.592Z,23.97
2019-01-04T07:15:52.021Z,33.73
2019-01-04T07:18:22.460Z,24.17
2019-01-04T07:20:52.009Z,25.27
2019-01-04T07:23:21.401Z,27.10
2019-01-04T07:25:50.759Z,21.77
2019-01-04T07:28:20.130Z,24.87
2019-01-04T07:30:49.633Z,23.10
2019-01-04T07:33:19.092Z,28.33
2019-01-04T07:35:48.398Z,25.47
2019-01-04T07:38:17.725Z,24.47
2019-01-04T07:40:47.060Z,30.23
2019-01-04T07:43:16.766Z,26.80
2019-01-04T07:45:46.207Z,23.10
2019-01-04T07:48:15.606Z,21.63
2019-01-04T07:50:45.013Z,22.83
2019-01-04T07:53:14.522Z,23.17
2019-01-04T07:55:43.996Z,22.00
2019-01-04T07:58:13.612Z,25.93
2019-01-04T08:00:43.014Z,28.03
2019-01-04T08:03:23.403Z,24.73
2019-01-04T08:05:54.702Z,21.80
2019-01-04T08:08:24.138Z,22.70
2019-01-04T08:10:53.620Z,27.90
2019-01-04T08:13:23.328Z,22.43
2019-01-04T08:15:52.826Z,22.73
2019-01-04T08:18:22.345Z,21.80
2019-01-04T08:20:51.933Z,23.97
2019-01-04T08:23:21.555Z,20.07
2019-01-04T08:25:50.983Z,21.27
2019-01-04T08:28:23.450Z,22.63
2019-01-04T08:30:53.165Z,27.03
2019-01-04T08:33:22.578Z,27.80
2019-01-04T08:35:52.020Z,23.77
2019-01-04T08:38:21.551Z,22.83
2019-01-04T08:40:50.996Z,24.43
2019-01-04T08:43:20.370Z,22.37
2019-01-04T08:45:49.879Z,25.30
2019-01-04T08:48:19.242Z,23.43
2019-01-04T08:50:48.586Z,20.83
2019-01-04T08:53:19.481Z,31.50
2019-01-04T08:55:49.170Z,30.70
2019-01-04T08:58:19.071Z,29.47
2019-01-04T09:00:48.659Z,32.80
2019-01-04T09:03:18.088Z,29.17
2019-01-04T09:05:47.534Z,32.47
2019-01-04T09:08:16.970Z,29.63
2019-01-04T09:10:46.512Z,28.07
2019-01-04T09:13:15.904Z,30.03
2019-01-04T09:15:45.257Z,35.13
2019-01-04T09:18:14.615Z,24.47
2019-01-04T09:20:44.135Z,22.37
2019-01-04T09:23:14.211Z,23.27
2019-01-04T09:25:43.757Z,28.70
2019-01-04T09:28:18.018Z,24.77
2019-01-04T09:30:44.432Z,23.47
2019-01-04T09:33:14.825Z,27.00
2019-01-04T09:35:44.291Z,22.80
2019-01-04T09:38:13.816Z,23.83
2019-01-04T09:40:43.357Z,20.20
2019-01-04T09:43:12.871Z,18.83
2019-01-04T09:45:42.292Z,21.23
2019-01-04T09:48:11.693Z,21.40
2019-01-04T09:50:41.030Z,23.73
2019-01-04T09:53:10.352Z,21.17
2019-01-04T09:55:39.675Z,22.47
2019-01-04T09:58:09.011Z,22.80
2019-01-04T10:00:38.337Z,27.13
2019-01-04T10:03:09.750Z,25.77
2019-01-04T10:05:39.205Z,27.67
2019-01-04T10:08:08.553Z,25.87
2019-01-04T10:10:37.868Z,28.50
2019-01-04T10:13:07.211Z,28.80
2019-01-04T10:15:36.553Z,29.83
2019-01-04T10:18:06.064Z,34.53
2019-01-04T10:20:35.363Z,38.67
2019-01-04T10:23:04.727Z,40.27
2019-01-04T10:25:34.046Z,35.57
2019-01-04T10:28:03.409Z,33.20
2019-01-04T10:30:32.783Z,36.73
2019-01-04T10:33:02.084Z,38.43
2019-01-04T10:35:31.460Z,34.73
2019-01-04T10:38:00.822Z,34.40
2019-01-04T10:40:30.362Z,33.63
2019-01-04T10:42:59.829Z,29.13
2019-01-04T10:45:29.745Z,29.60
2019-01-04T10:47:59.116Z,26.63
2019-01-04T10:50:28.552Z,26.17
2019-01-04T10:52:57.875Z,25.50
2019-01-04T10:55:27.284Z,27.30
2019-01-04T10:57:56.619Z,30.13
2019-01-04T11:00:26.213Z,30.13
2019-01-04T11:02:55.560Z,30.03
2019-01-04T11:05:29.048Z,31.70
2019-01-04T11:07:58.350Z,30.33
2019-01-04T11:10:29.192Z,27.97
2019-01-04T11:12:58.521Z,27.43
2019-01-04T11:15:27.856Z,28.60
2019-01-04T11:17:57.246Z,27.13
2019-01-04T11:20:41.442Z,30.50
2019-01-04T11:23:53.854Z,24.13
2019-01-04T11:26:46.984Z,21.77
2019-01-04T11:30:15.298Z,21.30
2019-01-04T11:33:25.272Z,20.23
2019-01-04T11:36:14.927Z,16.43
2019-01-04T11:39:23.900Z,17.23
2019-01-04T11:42:44.093Z,17.13
2019-01-04T11:45:43.608Z,16.97
2019-01-04T11:48:26.901Z,16.20
2019-01-04T11:51:17.252Z,16.33
2019-01-04T11:53:46.703Z,14.97
2019-01-04T12:00:11.317Z,14.13
2019-01-04T12:02:46.472Z,14.03
2019-01-04T12:03:47.008Z,14.93
2019-01-04T12:05:18.192Z,14.47
2019-01-04T12:07:47.551Z,18.27
2019-01-04T12:10:16.984Z,15.70
2019-01-04T12:12:46.363Z,15.73
2019-01-04T12:15:24.387Z,16.87
2019-01-04T12:17:53.810Z,17.93
2019-01-04T12:20:23.219Z,15.03
2019-01-04T12:22:52.646Z,16.03
2019-01-04T12:25:22.163Z,16.20
2019-01-04T12:27:51.513Z,17.63
2019-01-04T12:30:21.133Z,18.60
2019-01-04T12:32:50.492Z,15.03
2019-01-04T12:35:19.804Z,16.07
2019-01-04T12:37:49.185Z,16.93
2019-01-04T12:40:18.544Z,21.63
2019-01-04T12:42:47.893Z,17.00
2019-01-04T12:45:17.250Z,18.57
2019-01-04T12:47:46.583Z,22.10
2019-01-04T12:50:15.953Z,20.73
2019-01-04T12:52:45.266Z,24.40
2019-01-04T12:55:14.655Z,24.13
2019-01-04T12:57:44.111Z,25.23
2019-01-04T13:00:14.025Z,25.67
2019-01-04T13:02:43.994Z,28.47
2019-01-04T13:05:33.869Z,30.23
2019-01-04T13:08:10.180Z,29.57
2019-01-04T13:11:06.856Z,28.90
2019-01-04T13:13:41.980Z,29.60
2019-01-04T13:16:14.162Z,33.53
2019-01-04T13:18:45.098Z,40.20
2019-01-04T13:21:33.400Z,31.03
2019-01-04T13:24:07.093Z,33.80
2019-01-04T13:26:43.148Z,35.90
2019-01-04T13:29:21.245Z,30.00
2019-01-04T13:31:59.491Z,33.00
2019-01-04T13:34:45.905Z,30.10
2019-01-04T13:37:21.704Z,37.07
2019-01-04T13:39:59.726Z,37.30
2019-01-04T13:42:38.577Z,39.13
2019-01-04T13:45:14.974Z,35.77
2019-01-04T13:47:49.823Z,42.27
2019-01-04T13:50:31.677Z,44.37
2019-01-04T13:53:23.440Z,39.63
2019-01-04T13:56:03.900Z,43.27
2019-01-04T13:58:42.606Z,45.10
2019-01-04T14:01:53.412Z,44.00
2019-01-04T14:04:36.265Z,43.70
2019-01-04T14:07:14.545Z,44.07
2019-01-04T14:09:48.286Z,41.80
2019-01-04T14:12:32.175Z,43.63
2019-01-04T14:15:28.306Z,49.90
2019-01-04T14:18:00.220Z,47.07
2019-01-04T14:20:38.514Z,48.23
2019-01-04T14:23:28.899Z,48.03
2019-01-04T14:26:12.541Z,48.00
2019-01-04T14:28:55.702Z,51.07
2019-01-04T14:31:35.053Z,50.57
2019-01-04T14:34:07.794Z,53.70
2019-01-04T14:36:48.665Z,40.20
2019-01-04T14:39:24.572Z,42.13
2019-01-04T14:41:54.004Z,39.33
2019-01-04T14:44:48.223Z,41.97
2019-01-04T14:47:29.174Z,38.70
2019-01-04T14:50:13.438Z,42.87
2019-01-04T14:52:44.128Z,40.27
2019-01-04T14:55:22.166Z,44.77
2019-01-04T14:57:59.521Z,44.03
2019-01-04T15:03:46.856Z,48.33
2019-01-04T15:06:33.314Z,49.47
2019-01-04T15:09:12.564Z,52.40
2019-01-04T15:11:49.906Z,46.87
2019-01-04T15:14:50.730Z,40.37
2019-01-04T15:17:30.645Z,46.23
2019-01-04T15:20:14.470Z,50.20
2019-01-04T15:22:51.191Z,43.57
2019-01-04T15:25:41.107Z,48.00
2019-01-04T15:28:12.493Z,58.50
2019-01-04T15:30:51.523Z,54.93
2019-01-04T15:33:23.554Z,56.47
2019-01-04T15:36:02.938Z,59.10
2019-01-04T15:38:45.750Z,69.10
2019-01-04T15:41:21.072Z,63.73
2019-01-04T15:44:00.585Z,68.50
2019-01-04T15:46:49.787Z,66.40
2019-01-04T15:49:34.741Z,69.97
2019-01-04T15:52:16.179Z,72.77
2019-01-04T15:54:50.890Z,69.23
2019-01-04T15:57:30.677Z,64.07
2019-01-04T16:00:09.930Z,74.47
2019-01-04T16:02:52.830Z,70.53
2019-01-04T16:05:27.682Z,70.17
2019-01-04T16:08:08.156Z,68.97
2019-01-04T16:10:48.604Z,67.33
2019-01-04T16:13:23.984Z,70.53
2019-01-04T16:16:12.559Z,68.57
2019-01-04T16:18:51.873Z,75.50
2019-01-04T16:21:43.058Z,68.20
2019-01-04T16:24:16.221Z,71.93
2019-01-04T16:27:05.475Z,80.97
2019-01-04T16:29:50.436Z,78.83
2019-01-04T16:32:33.075Z,77.73
2019-01-04T16:35:12.326Z,77.83
2019-01-04T16:37:50.230Z,76.90
2019-01-04T16:40:20.008Z,82.30
2019-01-04T16:43:02.620Z,85.30
2019-01-04T16:45:36.820Z,91.03
2019-01-04T16:48:14.813Z,88.67
2019-01-04T16:51:00.456Z,86.17
2019-01-04T16:53:31.819Z,90.13
2019-01-04T16:56:07.101Z,88.10
2019-01-04T16:58:55.648Z,89.93
2019-01-04T17:01:33.708Z,89.57
2019-01-04T17:04:07.713Z,93.27
2019-01-04T17:06:49.992Z,87.87
2019-01-04T17:09:27.196Z,97.70
2019-01-04T17:12:04.450Z,98.80
2019-01-04T17:14:57.677Z,96.87
2019-01-04T17:17:27.051Z,97.07
2019-01-04T17:20:07.791Z,103.93
2019-01-04T17:22:56.373Z,105.23
2019-01-04T17:25:30.013Z,97.30
2019-01-04T17:28:14.988Z,109.63
2019-01-04T17:30:54.025Z,101.07
2019-01-04T17:33:28.924Z,113.90
2019-01-04T17:36:07.479Z,100.33
2019-01-04T17:38:45.080Z,104.93
2019-01-04T17:41:20.030Z,101.93
2019-01-04T17:43:50.951Z,106.80
2019-01-04T17:46:30.745Z,96.73
2019-01-04T17:49:15.199Z,105.33
2019-01-04T17:52:08.564Z,112.03
2019-01-04T17:54:46.725Z,108.57
2019-01-04T17:57:19.768Z,106.90
2019-01-04T18:00:06.755Z,106.30
2019-01-04T18:02:40.830Z,110.20
2019-01-04T18:05:26.819Z,111.33
2019-01-04T18:08:07.983Z,113.07
2019-01-04T18:10:43.813Z,112.80
2019-01-04T18:13:19.263Z,110.43
2019-01-04T18:16:00.445Z,118.03
2019-01-04T18:18:34.505Z,106.00
2019-01-04T18:24:07.274Z,113.90
2019-01-04T18:26:43.602Z,112.33
2019-01-04T18:29:27.741Z,113.20
2019-01-04T18:32:11.007Z,106.73
2019-01-04T18:34:48.412Z,111.53
2019-01-04T18:38:07.965Z,107.30
2019-01-04T18:40:43.343Z,113.00
2019-01-04T18:43:13.167Z,108.07
2019-01-04T18:45:49.328Z,110.83
2019-01-04T18:48:31.861Z,108.40
2019-01-04T18:51:14.436Z,102.93
2019-01-04T18:53:51.717Z,105.23
2019-01-04T18:56:28.173Z,110.60
2019-01-04T18:59:13.161Z,110.37
2019-01-04T19:01:44.969Z,110.80
2019-01-04T19:04:29.921Z,109.13
2019-01-04T19:07:04.453Z,97.60
2019-01-04T19:12:59.383Z,108.13
2019-01-04T19:15:33.409Z,106.17
2019-01-04T19:18:11.109Z,99.33
2019-01-04T19:20:46.252Z,89.47
2019-01-04T19:23:17.983Z,99.93
2019-01-04T19:25:55.765Z,97.60
2019-01-04T19:28:34.774Z,98.90
2019-01-04T19:31:15.053Z,86.53
2019-01-04T19:33:45.934Z,93.97
2019-01-04T19:36:19.500Z,95.03
2019-01-04T19:38:58.275Z,92.07
2019-01-04T19:41:31.031Z,95.53
2019-01-04T19:44:21.144Z,95.93
2019-01-04T19:47:08.667Z,94.40
2019-01-04T19:49:52.536Z,90.77
2019-01-04T19:52:37.367Z,94.90
2019-01-04T19:55:43.457Z,94.30
2019-01-04T19:58:24.672Z,92.57
2019-01-04T20:01:01.914Z,91.03
2019-01-04T20:03:50.354Z,94.93
2019-01-04T20:07:36.225Z,92.33
2019-01-04T20:11:12.409Z,85.37
2019-01-04T20:14:35.685Z,96.93
2019-01-04T20:17:31.708Z,96.97
2019-01-04T20:20:19.755Z,95.60
2019-01-04T20:23:18.135Z,97.03
2019-01-04T20:26:10.121Z,102.27
2019-01-04T20:29:07.727Z,96.60
2019-01-04T20:32:22.120Z,97.20
2019-01-04T20:35:29.386Z,99.10
2019-01-04T20:38:25.050Z,96.63
2019-01-04T20:41:33.652Z,99.50
2019-01-04T20:44:36.190Z,98.53
2019-01-04T20:47:50.967Z,92.60
2019-01-04T20:50:52.819Z,82.93
2019-01-04T20:54:28.964Z,90.17
2019-01-04T20:57:21.080Z,95.63
2019-01-04T21:00:26.431Z,95.67
2019-01-04T21:03:24.730Z,95.97
2019-01-04T21:06:29.986Z,99.00
2019-01-04T21:09:31.632Z,96.60
2019-01-04T21:12:41.640Z,101.20
2019-01-04T21:15:43.711Z,92.17
2019-01-04T21:18:34.102Z,92.40
2019-01-04T21:21:27.682Z,102.57
2019-01-04T21:24:16.487Z,103.20
2019-01-04T21:27:14.696Z,93.13
2019-01-04T21:30:12.879Z,82.07
2019-01-04T21:33:29.404Z,87.83
2019-01-04T21:36:19.324Z,87.73
2019-01-04T21:39:37.387Z,87.60
2019-01-04T21:42:37.206Z,86.87
2019-01-04T21:45:36.137Z,82.47
2019-01-04T21:48:41.057Z,94.77
2019-01-04T21:54:45.329Z,89.63
2019-01-04T21:57:46.622Z,93.83
2019-01-04T22:00:44.381Z,93.07
2019-01-04T22:03:46.902Z,88.77
2019-01-04T22:06:47.803Z,89.10
2019-01-04T22:10:04.594Z,94.13
2019-01-04T22:13:11.433Z,93.10
2019-01-04T22:16:22.303Z,104.70
2019-01-04T22:19:22.860Z,97.13
2019-01-04T22:22:24.322Z,99.57
2019-01-04T22:25:18.932Z,95.20
2019-01-04T22:28:11.113Z,100.80
2019-01-04T22:31:17.533Z,111.00
2019-01-04T22:34:24.351Z,108.90
2019-01-04T22:37:28.910Z,111.60
2019-01-04T22:40:33.314Z,114.07
2019-01-04T22:43:46.247Z,109.40
2019-01-04T22:46:47.282Z,123.70
2019-01-04T22:49:53.354Z,118.77
2019-01-04T22:52:57.674Z,120.53
2019-01-04T22:56:12.373Z,124.17
2019-01-04T22:59:10.900Z,116.03
2019-01-04T23:02:11.431Z,115.43
2019-01-04T23:05:19.263Z,118.37
2019-01-04T23:08:44.475Z,122.90
2019-01-04T23:11:56.086Z,117.70
2019-01-04T23:14:54.601Z,119.73
2019-01-04T23:17:52.941Z,129.80
2019-01-04T23:21:00.075Z,118.20
2019-01-04T23:23:56.509Z,128.93
2019-01-04T23:26:45.449Z,120.83
2019-01-04T23:29:44.593Z,113.20
2019-01-04T23:32:56.312Z,133.00
2019-01-04T23:35:50.784Z,122.37
2019-01-04T23:39:20.446Z,126.10
2019-01-04T23:42:12.874Z,119.83
2019-01-04T23:45:07.283Z,125.57
2019-01-04T23:47:54.238Z,129.20
2019-01-04T23:51:03.574Z,135.40
2019-01-04T23:53:57.744Z,135.47
2019-01-04T23:56:44.411Z,122.77
2019-01-04T23:59:31.827Z,129.07
